createdAt,value
2018-09-21T00:05:24.072Z,17.10
2018-09-21T00:07:53.440Z,17.00
2018-09-21T00:10:22.866Z,16.90
2018-09-21T00:12:53.080Z,16.90
2018-09-21T00:15:22.439Z,16.80
2018-09-21T00:17:52.554Z,16.70
2018-09-21T00:20:21.834Z,16.60
2018-09-21T00:23:12.234Z,16.60
2018-09-21T00:25:56.945Z,16.60
2018-09-21T00:28:27.547Z,16.50
2018-09-21T00:31:11.868Z,16.40
2018-09-21T00:33:41.134Z,16.40
2018-09-21T00:39:11.850Z,16.30
2018-09-21T00:41:41.091Z,16.40
2018-09-21T00:44:10.273Z,16.40
2018-09-21T00:47:02.832Z,16.40
2018-09-21T00:49:32.212Z,16.40
2018-09-21T01:05:56.004Z,16.40
2018-09-21T01:08:25.551Z,16.10
2018-09-21T01:10:55.533Z,16.00
2018-09-21T01:13:25.545Z,16.00
2018-09-21T01:15:55.225Z,16.00
2018-09-21T01:18:25.205Z,15.90
2018-09-21T01:20:55.692Z,15.90
2018-09-21T01:23:25.530Z,15.90
2018-09-21T01:25:55.306Z,15.90
2018-09-21T01:28:24.573Z,16.00
2018-09-21T01:30:54.471Z,16.00
2018-09-21T01:33:26.908Z,16.00
2018-09-21T01:35:58.423Z,16.00
2018-09-21T01:38:42.643Z,16.10
2018-09-21T01:41:19.704Z,16.00
2018-09-21T01:43:51.397Z,16.00
2018-09-21T01:46:26.263Z,16.00
2018-09-21T01:49:09.405Z,15.90
2018-09-21T01:51:40.436Z,15.80
2018-09-21T01:54:13.545Z,15.80
2018-09-21T01:56:43.768Z,15.80
2018-09-21T01:59:14.003Z,15.80
2018-09-21T02:01:45.146Z,15.80
2018-09-21T02:04:18.152Z,15.80
2018-09-21T02:09:47.099Z,15.80
2018-09-21T02:12:16.814Z,15.70
2018-09-21T02:14:47.123Z,15.70
2018-09-21T02:17:16.948Z,15.70
2018-09-21T02:19:47.109Z,15.60
2018-09-21T02:22:16.266Z,15.60
2018-09-21T02:24:46.425Z,15.60
2018-09-21T02:27:22.960Z,15.70
2018-09-21T02:29:55.662Z,15.70
2018-09-21T02:32:25.668Z,15.70
2018-09-21T02:34:57.038Z,15.80
2018-09-21T02:37:26.179Z,15.80
2018-09-21T02:39:59.458Z,15.70
2018-09-21T02:42:28.681Z,15.70
2018-09-21T02:45:07.650Z,15.60
2018-09-21T02:47:36.983Z,15.50
2018-09-21T02:50:06.680Z,15.50
2018-09-21T02:52:35.948Z,15.30
2018-09-21T02:55:06.141Z,15.30
2018-09-21T02:57:36.146Z,15.20
2018-09-21T03:00:06.453Z,15.10
2018-09-21T03:02:35.721Z,15.10
2018-09-21T03:05:04.803Z,15.10
2018-09-21T03:07:33.942Z,15.10
2018-09-21T03:10:03.329Z,15.10
2018-09-21T03:12:32.500Z,15.10
2018-09-21T03:15:01.547Z,15.10
2018-09-21T03:17:30.664Z,15.10
2018-09-21T03:19:59.835Z,15.20
2018-09-21T03:22:29.044Z,15.30
2018-09-21T03:24:58.400Z,15.40
2018-09-21T03:27:27.934Z,15.40
2018-09-21T03:29:56.960Z,15.50
2018-09-21T03:32:26.267Z,15.60
2018-09-21T03:34:55.821Z,15.70
2018-09-21T03:37:24.945Z,15.80
2018-09-21T03:39:54.119Z,15.80
2018-09-21T03:42:23.396Z,15.90
2018-09-21T03:44:52.641Z,16.00
2018-09-21T03:47:21.880Z,16.00
2018-09-21T03:49:51.223Z,16.00
2018-09-21T03:52:20.728Z,15.90
2018-09-21T03:54:50.064Z,15.80
2018-09-21T03:57:19.307Z,15.80
2018-09-21T03:59:48.472Z,15.90
2018-09-21T04:02:17.629Z,15.90
2018-09-21T04:04:46.938Z,15.90
2018-09-21T04:07:16.177Z,15.90
2018-09-21T04:09:45.318Z,16.00
2018-09-21T04:12:14.610Z,16.10
2018-09-21T04:14:43.980Z,16.20
2018-09-21T04:17:13.178Z,16.30
2018-09-21T04:19:42.526Z,16.30
2018-09-21T04:22:11.786Z,16.30
2018-09-21T04:24:41.032Z,16.20
2018-09-21T04:27:10.273Z,16.20
2018-09-21T04:29:39.576Z,16.10
2018-09-21T04:32:08.957Z,16.00
2018-09-21T04:34:38.353Z,15.90
2018-09-21T04:37:07.658Z,15.90
2018-09-21T04:39:37.136Z,15.80
2018-09-21T04:42:06.599Z,15.80
2018-09-21T04:44:35.898Z,15.90
2018-09-21T04:47:05.170Z,16.00
2018-09-21T04:49:34.593Z,16.00
2018-09-21T04:52:03.971Z,15.90
2018-09-21T04:54:33.439Z,16.00
2018-09-21T04:57:09.392Z,16.00
2018-09-21T04:59:38.656Z,16.00
2018-09-21T05:02:08.034Z,16.00
2018-09-21T05:04:38.047Z,16.00
2018-09-21T05:07:07.560Z,16.00
2018-09-21T05:09:36.801Z,16.00
2018-09-21T05:12:06.251Z,16.10
2018-09-21T05:14:36.664Z,16.10
2018-09-21T05:17:06.015Z,16.10
2018-09-21T05:19:35.494Z,16.10
2018-09-21T05:22:04.821Z,16.10
2018-09-21T05:24:34.059Z,16.30
2018-09-21T05:27:03.315Z,16.40
2018-09-21T05:29:32.854Z,16.40
2018-09-21T05:32:02.110Z,16.50
2018-09-21T05:34:31.405Z,16.60
2018-09-21T05:37:01.708Z,16.60
2018-09-21T05:39:31.038Z,16.70
2018-09-21T05:42:00.444Z,16.90
2018-09-21T05:44:29.719Z,17.20
2018-09-21T05:46:59.029Z,17.70
2018-09-21T05:49:28.375Z,18.30
2018-09-21T05:51:58.494Z,19.10
2018-09-21T05:54:27.837Z,19.70
2018-09-21T05:56:57.157Z,20.30
2018-09-21T05:59:26.525Z,21.00
2018-09-21T06:01:55.861Z,21.60
2018-09-21T06:04:25.299Z,21.80
2018-09-21T06:06:54.749Z,22.10
2018-09-21T06:09:25.085Z,22.40
2018-09-21T06:11:54.323Z,22.60
2018-09-21T06:14:23.652Z,22.20
2018-09-21T06:16:52.970Z,21.80
2018-09-21T06:19:22.645Z,22.20
2018-09-21T06:21:52.077Z,23.30
2018-09-21T06:24:21.532Z,24.30
2018-09-21T06:26:50.916Z,25.10
2018-09-21T06:29:20.199Z,26.40
2018-09-21T06:31:50.233Z,27.60
2018-09-21T06:34:19.610Z,28.10
2018-09-21T06:36:49.079Z,28.10
2018-09-21T06:39:18.681Z,28.10
2018-09-21T06:41:48.169Z,28.50
2018-09-21T06:44:17.529Z,28.80
2018-09-21T06:46:46.686Z,28.40
2018-09-21T06:49:15.880Z,27.60
2018-09-21T06:51:45.100Z,26.60
2018-09-21T06:54:14.380Z,25.70
2018-09-21T06:56:43.596Z,25.00
2018-09-21T06:59:12.868Z,24.40
2018-09-21T07:01:42.122Z,24.00
2018-09-21T07:04:11.254Z,23.80
2018-09-21T07:06:40.321Z,23.60
2018-09-21T07:09:12.502Z,23.50
2018-09-21T07:11:42.192Z,23.50
2018-09-21T07:14:12.131Z,23.50
2018-09-21T07:16:41.567Z,23.60
2018-09-21T07:19:10.596Z,23.60
2018-09-21T07:21:39.770Z,23.50
2018-09-21T07:24:08.995Z,23.40
2018-09-21T07:26:38.576Z,23.30
2018-09-21T07:29:07.872Z,23.10
2018-09-21T07:31:37.346Z,22.90
2018-09-21T07:34:06.679Z,22.80
2018-09-21T07:36:35.854Z,22.60
2018-09-21T07:39:06.617Z,22.50
2018-09-21T07:41:36.134Z,22.40
2018-09-21T07:44:05.521Z,22.50
2018-09-21T07:46:34.797Z,22.40
2018-09-21T07:49:04.304Z,22.50
2018-09-21T07:51:33.676Z,22.40
2018-09-21T07:54:02.977Z,22.40
2018-09-21T07:56:32.301Z,22.40
2018-09-21T07:59:01.637Z,22.40
2018-09-21T08:01:30.912Z,22.50
2018-09-21T08:04:00.136Z,22.60
2018-09-21T08:06:29.522Z,22.60
2018-09-21T08:08:58.878Z,22.60
2018-09-21T08:11:28.152Z,22.60
2018-09-21T08:13:57.323Z,22.60
2018-09-21T08:16:26.490Z,22.70
2018-09-21T08:18:55.724Z,22.80
2018-09-21T08:21:24.989Z,22.90
2018-09-21T08:23:54.282Z,23.00
2018-09-21T08:26:23.526Z,23.00
2018-09-21T08:28:52.775Z,23.10
2018-09-21T08:31:22.122Z,23.10
2018-09-21T08:33:52.082Z,23.10
2018-09-21T08:36:21.889Z,23.00
2018-09-21T08:38:51.091Z,23.00
2018-09-21T08:41:20.444Z,23.10
2018-09-21T08:43:49.776Z,23.10
2018-09-21T08:46:19.040Z,23.10
2018-09-21T08:48:48.528Z,23.10
2018-09-21T08:51:17.889Z,23.10
2018-09-21T08:53:47.235Z,23.10
2018-09-21T08:56:16.544Z,23.10
2018-09-21T08:58:45.885Z,23.20
2018-09-21T09:01:15.231Z,23.20
2018-09-21T09:03:44.548Z,23.20
2018-09-21T09:06:13.741Z,23.20
2018-09-21T09:08:42.988Z,23.20
2018-09-21T09:11:12.224Z,23.20
2018-09-21T09:13:41.430Z,23.20
2018-09-21T09:16:10.689Z,23.30
2018-09-21T09:18:39.734Z,23.30
2018-09-21T09:21:09.712Z,23.40
2018-09-21T09:23:39.945Z,23.50
2018-09-21T09:26:09.179Z,23.50
2018-09-21T09:28:38.413Z,23.50
2018-09-21T09:31:41.975Z,23.60
2018-09-21T09:34:12.178Z,23.60
2018-09-21T09:36:49.188Z,23.70
2018-09-21T09:39:19.418Z,23.80
2018-09-21T09:41:48.697Z,23.80
2018-09-21T09:44:18.103Z,23.80
2018-09-21T09:46:47.775Z,23.80
2018-09-21T09:49:17.432Z,23.80
2018-09-21T09:51:46.724Z,23.70
2018-09-21T09:54:15.964Z,23.60
2018-09-21T09:56:45.332Z,23.60
2018-09-21T09:59:14.675Z,23.50
2018-09-21T10:01:44.732Z,23.30
2018-09-21T10:04:14.208Z,23.20
2018-09-21T10:06:43.787Z,23.20
2018-09-21T10:09:12.923Z,23.10
2018-09-21T10:11:42.164Z,23.00
2018-09-21T10:14:12.033Z,23.00
2018-09-21T10:16:43.089Z,22.90
2018-09-21T10:19:12.107Z,22.90
2018-09-21T10:21:42.373Z,22.80
2018-09-21T10:24:12.368Z,22.80
2018-09-21T10:33:01.748Z,23.00
2018-09-21T10:35:30.812Z,23.20
2018-09-21T10:37:59.902Z,23.30
2018-09-21T10:40:28.981Z,23.50
2018-09-21T10:42:58.080Z,23.60
2018-09-21T10:45:27.080Z,23.70
2018-09-21T10:47:56.400Z,23.70
2018-09-21T10:50:25.757Z,23.80
2018-09-21T10:52:54.913Z,23.80
2018-09-21T10:55:23.928Z,23.70
2018-09-21T10:57:53.094Z,23.60
2018-09-21T11:00:22.246Z,23.50
2018-09-21T11:02:51.342Z,23.40
2018-09-21T11:05:20.376Z,23.30
2018-09-21T11:07:49.402Z,23.40
2018-09-21T11:10:18.451Z,23.40
2018-09-21T11:12:47.892Z,23.50
2018-09-21T11:15:17.117Z,23.60
2018-09-21T11:17:46.296Z,23.60
2018-09-21T11:20:15.397Z,23.50
2018-09-21T11:22:44.520Z,23.40
2018-09-21T11:25:13.759Z,23.40
2018-09-21T11:27:42.849Z,23.20
2018-09-21T11:30:12.068Z,22.90
2018-09-21T11:32:41.254Z,22.70
2018-09-21T11:35:10.391Z,22.70
2018-09-21T11:37:39.385Z,22.60
2018-09-21T11:40:08.461Z,22.60
2018-09-21T11:42:37.523Z,22.70
2018-09-21T11:45:07.320Z,22.70
2018-09-21T11:47:36.763Z,22.70
2018-09-21T11:50:05.991Z,22.70
2018-09-21T11:52:35.111Z,22.70
2018-09-21T11:55:04.429Z,22.50
2018-09-21T11:57:33.676Z,21.70
2018-09-21T12:00:03.107Z,20.90
2018-09-21T12:02:32.119Z,19.80
2018-09-21T12:05:01.143Z,18.80
2018-09-21T12:07:30.099Z,17.90
2018-09-21T12:09:59.061Z,17.10
2018-09-21T12:12:28.173Z,16.60
2018-09-21T12:14:57.145Z,16.20
2018-09-21T12:17:26.180Z,16.00
2018-09-21T12:19:55.284Z,15.80
2018-09-21T12:22:24.429Z,15.70
2018-09-21T12:24:53.625Z,15.60
2018-09-21T12:27:22.657Z,15.40
2018-09-21T12:29:52.233Z,15.30
2018-09-21T12:32:21.370Z,15.00
2018-09-21T12:34:50.542Z,14.80
2018-09-21T12:37:19.734Z,14.60
2018-09-21T12:39:48.931Z,14.50
2018-09-21T12:42:17.943Z,14.40
2018-09-21T12:44:47.224Z,14.20
2018-09-21T12:47:16.239Z,14.10
2018-09-21T12:49:45.495Z,13.90
2018-09-21T12:52:14.754Z,13.80
2018-09-21T12:54:43.780Z,13.70
2018-09-21T12:57:12.889Z,13.60
2018-09-21T12:59:42.048Z,13.50
2018-09-21T13:02:11.170Z,13.40
2018-09-21T13:04:40.392Z,13.30
2018-09-21T13:07:09.575Z,13.20
2018-09-21T13:09:38.808Z,13.30
2018-09-21T13:12:08.003Z,13.30
2018-09-21T13:14:37.043Z,13.30
2018-09-21T13:17:06.039Z,13.30
2018-09-21T13:19:35.134Z,13.30
2018-09-21T13:22:04.406Z,13.20
2018-09-21T13:24:33.697Z,13.30
2018-09-21T13:27:02.873Z,13.30
2018-09-21T13:29:32.122Z,13.30
2018-09-21T13:32:01.313Z,13.20
2018-09-21T13:34:30.374Z,13.20
2018-09-21T13:36:59.583Z,13.20
2018-09-21T13:39:28.854Z,13.20
2018-09-21T13:41:57.997Z,13.20
2018-09-21T13:44:27.193Z,13.30
2018-09-21T13:46:56.456Z,13.30
2018-09-21T13:49:25.562Z,13.30
2018-09-21T13:51:54.668Z,13.30
2018-09-21T13:54:24.004Z,13.20
2018-09-21T13:56:53.027Z,13.20
2018-09-21T13:59:22.070Z,13.20
2018-09-21T14:01:51.137Z,13.40
2018-09-21T14:04:20.103Z,13.50
2018-09-21T14:06:49.753Z,13.60
2018-09-21T14:09:18.936Z,13.70
2018-09-21T14:11:48.349Z,13.80
2018-09-21T14:14:17.689Z,13.80
2018-09-21T14:16:46.861Z,13.80
2018-09-21T14:19:16.075Z,13.70
2018-09-21T14:21:45.340Z,13.70
2018-09-21T14:24:14.690Z,13.70
2018-09-21T14:26:43.748Z,13.80
2018-09-21T14:29:12.848Z,13.80
2018-09-21T14:31:41.991Z,13.70
2018-09-21T14:34:11.427Z,13.70
2018-09-21T14:36:40.742Z,13.70
2018-09-21T14:39:11.187Z,13.70
2018-09-21T14:41:40.529Z,13.70
2018-09-21T14:44:09.863Z,13.70
2018-09-21T14:46:39.139Z,13.80
2018-09-21T14:49:08.419Z,13.80
2018-09-21T14:51:37.846Z,13.70
2018-09-21T14:54:07.605Z,13.70
2018-09-21T14:56:36.828Z,13.70
2018-09-21T14:59:07.032Z,13.60
2018-09-21T15:01:36.199Z,13.60
2018-09-21T15:04:05.408Z,13.60
2018-09-21T15:06:34.606Z,13.70
2018-09-21T15:09:04.617Z,13.70
2018-09-21T15:11:33.998Z,13.70
2018-09-21T15:14:03.220Z,13.80
2018-09-21T15:16:32.374Z,13.80
2018-09-21T15:19:01.698Z,13.80
2018-09-21T15:21:30.843Z,14.00
2018-09-21T15:24:00.176Z,14.10
2018-09-21T15:26:29.501Z,14.10
2018-09-21T15:28:58.918Z,14.20
2018-09-21T15:31:28.050Z,14.20
2018-09-21T15:33:57.269Z,14.10
2018-09-21T15:36:26.499Z,14.10
2018-09-21T15:38:55.603Z,14.00
2018-09-21T15:41:24.905Z,14.10
2018-09-21T15:43:54.175Z,14.10
2018-09-21T15:46:23.308Z,14.10
2018-09-21T15:48:52.544Z,14.00
2018-09-21T15:51:21.714Z,14.10
2018-09-21T15:53:50.993Z,14.00
2018-09-21T15:56:20.163Z,14.00
2018-09-21T15:58:49.233Z,14.00
2018-09-21T16:01:18.470Z,13.90
2018-09-21T16:03:47.576Z,13.90
2018-09-21T16:06:22.759Z,13.80
2018-09-21T16:08:52.963Z,13.80
2018-09-21T16:11:22.108Z,13.70
2018-09-21T16:13:52.560Z,13.70
2018-09-21T16:16:21.685Z,13.70
2018-09-21T16:18:51.208Z,13.80
2018-09-21T16:21:20.466Z,13.80
2018-09-21T16:23:49.695Z,13.90
2018-09-21T16:26:19.144Z,13.90
2018-09-21T16:28:48.303Z,13.90
2018-09-21T16:31:17.604Z,13.90
2018-09-21T16:33:46.791Z,13.90
2018-09-21T16:36:15.919Z,13.90
2018-09-21T16:38:45.126Z,13.90
2018-09-21T16:41:14.464Z,13.80
2018-09-21T16:43:43.677Z,13.80
2018-09-21T16:46:14.711Z,13.80
2018-09-21T16:48:44.780Z,13.80
2018-09-21T16:51:16.360Z,13.70
2018-09-21T16:53:45.605Z,13.60
2018-09-21T16:56:16.845Z,13.60
2018-09-21T16:58:46.511Z,13.60
2018-09-21T17:01:16.556Z,13.60
2018-09-21T17:03:45.892Z,13.60
2018-09-21T17:06:15.552Z,13.60
